Time;durP1;ratioP1;P1;durP2;ratioP2;P2;SDS_P1;SDS_P2;PMS_P1;PMS_P2;Temp;Humidity;BMP_temperature;BMP_pressure;BME280_temperature;BME280_humidity;BME280_pressure;Samples;Min_cycle;Max_cycle;Signal;HPM_P1;HPM_P2
2023/05/05 00:00:19;;;;;;;5.75;3.92;;;18.30;54.40;;;;;;5072126;28;20220;-60
2023/05/05 00:02:45;;;;;;;3.40;3.20;;;18.30;54.40;;;;;;5073310;28;20181;-60
2023/05/05 00:05:10;;;;;;;3.45;3.15;;;18.30;54.50;;;;;;5071946;28;20202;-60
2023/05/05 00:07:36;;;;;;;3.50;3.20;;;18.30;54.50;;;;;;5072382;28;20175;-59
2023/05/05 00:10:02;;;;;;;2.80;2.67;;;18.30;54.50;;;;;;5073008;28;20174;-60
2023/05/05 00:12:27;;;;;;;3.38;3.17;;;18.30;54.50;;;;;;5072759;28;20185;-59
2023/05/05 00:14:53;;;;;;;3.35;3.00;;;18.30;54.50;;;;;;5072430;28;20533;-59
2023/05/05 00:17:21;;;;;;;3.13;2.92;;;18.30;54.50;;;;;;5072605;28;20178;-60
2023/05/05 00:19:47;;;;;;;2.90;2.70;;;18.30;54.50;;;;;;5072807;28;20253;-60
2023/05/05 00:22:13;;;;;;;3.45;3.17;;;18.30;54.50;;;;;;5071972;28;20277;-59
2023/05/05 00:24:38;;;;;;;3.47;3.10;;;18.30;54.50;;;;;;5072938;28;20257;-59
2023/05/05 00:27:03;;;;;;;3.08;2.88;;;18.30;54.60;;;;;;5071697;28;20234;-59
2023/05/05 00:29:29;;;;;;;3.35;3.05;;;18.30;54.60;;;;;;5072629;28;20186;-60
2023/05/05 00:31:55;;;;;;;3.22;2.95;;;18.30;54.60;;;;;;5072610;28;20174;-60
2023/05/05 00:34:21;;;;;;;3.30;3.10;;;18.30;54.60;;;;;;5071659;28;20171;-61
2023/05/05 00:36:46;;;;;;;3.30;3.00;;;18.30;54.60;;;;;;5072599;28;20247;-60
2023/05/05 00:39:12;;;;;;;3.00;2.72;;;18.30;54.60;;;;;;5072325;28;20261;-60
2023/05/05 00:41:37;;;;;;;3.10;2.90;;;18.30;54.60;;;;;;5071822;28;20220;-60
2023/05/05 00:44:03;;;;;;;3.17;2.97;;;18.30;54.70;;;;;;5072583;28;20651;-60
2023/05/05 00:46:29;;;;;;;2.90;2.70;;;18.20;54.60;;;;;;5072266;28;20214;-60
2023/05/05 00:48:55;;;;;;;3.10;2.90;;;18.30;54.60;;;;;;5071660;28;20170;-59
2023/05/05 00:51:20;;;;;;;4.07;3.10;;;18.30;54.60;;;;;;5070910;28;20183;-59
2023/05/05 00:53:46;;;;;;;3.15;2.88;;;18.30;54.70;;;;;;5072482;28;20257;-59
2023/05/05 00:56:13;;;;;;;4.60;3.17;;;18.30;54.60;;;;;;5071321;28;20540;-59
2023/05/05 00:58:40;;;;;;;3.17;2.97;;;18.30;54.70;;;;;;5072531;28;20175;-59
2023/05/05 01:01:06;;;;;;;3.42;3.20;;;18.30;54.70;;;;;;5072072;28;20630;-59
2023/05/05 01:03:31;;;;;;;2.90;2.70;;;18.20;54.60;;;;;;5071944;28;20213;-60
2023/05/05 01:06:31;;;;;;;3.65;3.35;;;18.30;54.70;;;;;;5072344;28;20320;-59
2023/05/05 01:09:09;;;;;;;2.85;2.65;;;18.20;54.60;;;;;;5072463;28;20232;-59
2023/05/05 01:11:41;;;;;;;2.92;2.72;;;18.20;54.60;;;;;;5054940;28;20189;-59
2023/05/05 01:14:20;;;;;;;3.22;3.03;;;18.20;54.60;;;;;;5054559;28;20630;-59
2023/05/05 01:16:59;;;;;;;2.95;2.75;;;18.20;54.70;;;;;;5071516;28;20262;-59
2023/05/05 01:19:39;;;;;;;3.20;3.00;;;18.20;54.70;;;;;;5054340;28;20179;-59
2023/05/05 01:22:06;;;;;;;3.10;2.90;;;18.20;54.70;;;;;;5070695;28;20178;-59
2023/05/05 01:25:02;;;;;;;4.80;2.92;;;18.20;54.70;;;;;;5070327;28;20174;-59
2023/05/05 01:27:48;;;;;;;3.40;3.10;;;18.20;54.70;;;;;;5070520;28;20217;-59
2023/05/05 01:30:36;;;;;;;3.17;2.97;;;18.20;54.70;;;;;;5071284;28;20220;-59
2023/05/05 01:33:07;;;;;;;3.03;2.83;;;18.20;54.80;;;;;;5072060;28;20204;-60
2023/05/05 01:35:36;;;;;;;3.00;2.80;;;18.20;54.80;;;;;;5070760;28;20634;-59
2023/05/05 01:38:25;;;;;;;3.00;2.80;;;18.10;54.70;;;;;;5053645;28;20241;-59
2023/05/05 01:41:10;;;;;;;2.75;2.55;;;18.20;54.80;;;;;;5070492;28;20205;-59
2023/05/05 01:43:36;;;;;;;3.17;2.97;;;18.20;54.80;;;;;;5071017;28;20210;-59
2023/05/05 01:46:02;;;;;;;3.15;2.90;;;18.20;54.80;;;;;;5070077;28;20348;-59
2023/05/05 01:48:28;;;;;;;3.33;3.13;;;18.20;54.80;;;;;;5054026;28;20175;-59
2023/05/05 01:50:54;;;;;;;3.08;2.78;;;18.20;54.80;;;;;;5071007;28;20179;-59
2023/05/05 01:53:23;;;;;;;3.28;3.08;;;18.20;54.80;;;;;;5070141;28;20685;-61
2023/05/05 01:55:49;;;;;;;3.40;3.10;;;18.20;54.80;;;;;;5071858;28;20182;-59
2023/05/05 01:58:14;;;;;;;3.35;3.00;;;18.20;54.80;;;;;;5071524;28;20170;-59
2023/05/05 02:00:40;;;;;;;2.90;2.70;;;18.20;54.90;;;;;;5053397;28;20257;-60
2023/05/05 02:03:06;;;;;;;3.42;3.13;;;18.20;54.90;;;;;;5070601;28;20258;-59
2023/05/05 02:05:32;;;;;;;2.92;2.72;;;18.20;54.90;;;;;;5070201;28;20214;-59
2023/05/05 02:07:57;;;;;;;3.15;2.95;;;18.20;54.90;;;;;;5070903;28;20316;-59
2023/05/05 02:10:23;;;;;;;3.08;2.88;;;18.20;55.00;;;;;;5071632;28;20647;-59
2023/05/05 02:12:49;;;;;;;3.20;3.00;;;18.20;54.90;;;;;;5070053;28;20174;-59
2023/05/05 02:15:15;;;;;;;3.20;3.00;;;18.10;54.90;;;;;;5053588;28;20171;-59
2023/05/05 02:17:41;;;;;;;3.22;2.92;;;18.20;55.60;;;;;;5072048;28;20218;-59
2023/05/05 02:20:08;;;;;;;3.03;2.72;;;18.20;55.00;;;;;;5069703;28;20258;-59
2023/05/05 02:22:33;;;;;;;3.33;3.13;;;18.20;55.00;;;;;;5054156;28;20178;-59
2023/05/05 02:24:59;;;;;;;4.35;3.22;;;18.20;55.00;;;;;;5072039;28;20177;-59
2023/05/05 02:27:24;;;;;;;3.05;2.85;;;18.20;55.00;;;;;;5070499;28;20225;-59
2023/05/05 02:29:56;;;;;;;3.05;2.85;;;18.20;55.00;;;;;;5075070;28;20586;-59
2023/05/05 02:32:33;;;;;;;3.10;2.90;;;18.20;55.00;;;;;;5073638;28;20579;-60
2023/05/05 02:35:11;;;;;;;3.10;2.90;;;18.20;55.00;;;;;;5073350;28;20170;-60
2023/05/05 02:37:37;;;;;;;3.20;3.00;;;18.20;55.00;;;;;;5073566;28;20178;-59
2023/05/05 02:40:04;;;;;;;3.03;2.88;;;18.20;55.00;;;;;;5057025;28;20232;-59
2023/05/05 02:42:33;;;;;;;3.30;3.10;;;18.20;55.00;;;;;;5072548;28;20229;-59
2023/05/05 02:45:00;;;;;;;3.30;2.95;;;18.20;55.10;;;;;;5074736;28;20186;-59
2023/05/05 02:47:35;;;;;;;2.70;2.50;;;18.10;55.00;;;;;;5073546;28;20237;-60
2023/05/05 02:50:01;;;;;;;3.30;3.10;;;18.20;55.10;;;;;;5074804;28;20174;-59
2023/05/05 02:52:27;;;;;;;3.60;3.30;;;18.20;55.10;;;;;;5074395;28;20182;-59
2023/05/05 02:54:52;;;;;;;3.25;3.05;;;18.20;55.10;;;;;;5072868;28;20173;-59
2023/05/05 02:57:19;;;;;;;3.20;2.90;;;18.20;55.10;;;;;;5056426;28;20232;-59
2023/05/05 03:00:09;;;;;;;3.40;3.03;;;18.20;55.10;;;;;;5056904;28;20633;-60
2023/05/05 03:03:00;;;;;;;3.38;3.10;;;18.10;55.10;;;;;;5057305;28;20170;-60
2023/05/05 03:05:29;;;;;;;3.65;3.35;;;18.10;55.10;;;;;;5057120;28;20211;-59
2023/05/05 03:08:08;;;;;;;3.15;2.95;;;18.20;55.10;;;;;;5073533;28;20182;-59
2023/05/05 03:10:35;;;;;;;3.15;2.92;;;18.10;55.10;;;;;;5057721;28;20529;-59
2023/05/05 03:13:01;;;;;;;2.92;2.72;;;18.10;55.10;;;;;;5056810;28;20261;-59
2023/05/05 03:15:43;;;;;;;2.97;2.78;;;18.10;55.10;;;;;;5072753;28;20220;-59
2023/05/05 03:18:11;;;;;;;3.10;2.55;;;18.10;55.10;;;;;;5072706;28;20634;-59
2023/05/05 03:20:38;;;;;;;3.15;2.92;;;18.20;55.10;;;;;;5072912;28;20571;-59
2023/05/05 03:23:03;;;;;;;3.33;3.08;;;18.10;55.10;;;;;;5055608;28;20174;-59
2023/05/05 03:25:48;;;;;;;3.17;2.97;;;18.10;55.10;;;;;;5073782;28;20198;-59
2023/05/05 03:28:14;;;;;;;3.20;3.00;;;18.10;55.10;;;;;;5073699;28;20272;-59
2023/05/05 03:30:39;;;;;;;3.10;2.90;;;18.10;55.10;;;;;;5073509;28;20640;-60
2023/05/05 03:33:06;;;;;;;3.20;3.00;;;18.10;55.10;;;;;;5072678;28;20189;-60
2023/05/05 03:35:31;;;;;;;3.17;2.97;;;18.10;55.10;;;;;;5073822;28;20185;-60
2023/05/05 03:37:57;;;;;;;2.63;2.47;;;18.10;55.20;;;;;;5072972;28;20183;-60
2023/05/05 03:40:22;;;;;;;2.85;2.60;;;18.10;55.10;;;;;;5072240;28;20705;-59
2023/05/05 03:42:48;;;;;;;3.10;2.50;;;18.10;55.20;;;;;;5073646;28;20178;-60
2023/05/05 03:45:13;;;;;;;3.10;2.90;;;18.10;55.20;;;;;;5072666;28;22140;-59
2023/05/05 03:47:39;;;;;;;2.90;2.70;;;18.10;55.30;;;;;;5073702;28;20178;-59
2023/05/05 03:50:06;;;;;;;3.15;2.95;;;18.00;55.20;;;;;;5073243;28;20170;-59
2023/05/05 03:52:31;;;;;;;2.80;2.60;;;18.10;55.30;;;;;;5072841;28;20186;-59
2023/05/05 03:54:58;;;;;;;3.28;2.97;;;18.10;55.30;;;;;;5073518;28;20175;-59
2023/05/05 03:57:24;;;;;;;2.70;2.50;;;18.10;55.30;;;;;;5073018;28;20171;-59
2023/05/05 03:59:50;;;;;;;3.10;2.90;;;18.00;55.20;;;;;;5072870;28;20175;-60
2023/05/05 04:02:15;;;;;;;3.00;2.80;;;18.00;55.20;;;;;;5073402;28;20177;-59
2023/05/05 04:04:41;;;;;;;2.80;2.60;;;18.10;55.30;;;;;;5073419;28;20174;-60
2023/05/05 04:07:06;;;;;;;2.90;2.70;;;18.00;55.20;;;;;;5072298;28;20210;-59
2023/05/05 04:09:32;;;;;;;2.95;2.75;;;18.10;55.30;;;;;;5073084;28;20544;-59
2023/05/05 04:11:57;;;;;;;3.08;2.88;;;18.10;55.30;;;;;;5072617;28;20530;-59
2023/05/05 04:14:23;;;;;;;3.20;3.00;;;18.10;55.30;;;;;;5072428;28;20181;-59
2023/05/05 04:16:48;;;;;;;3.03;2.83;;;18.10;55.30;;;;;;5072901;28;20185;-59
2023/05/05 04:19:14;;;;;;;3.10;2.90;;;18.00;55.30;;;;;;5071793;28;20179;-59
2023/05/05 04:21:40;;;;;;;2.63;2.42;;;18.00;55.20;;;;;;5073203;28;20174;-59
2023/05/05 04:24:05;;;;;;;2.50;2.33;;;18.00;55.20;;;;;;5072722;28;20175;-59
2023/05/05 04:26:31;;;;;;;3.28;3.08;;;18.00;55.30;;;;;;5071908;28;20230;-59
2023/05/05 04:28:56;;;;;;;3.13;2.83;;;18.00;55.20;;;;;;5072842;28;20617;-59
2023/05/05 04:31:22;;;;;;;2.70;2.50;;;18.00;55.30;;;;;;5072513;28;20175;-60
2023/05/05 04:33:47;;;;;;;2.83;2.63;;;18.00;55.30;;;;;;5072044;28;20518;-60
2023/05/05 04:36:13;;;;;;;2.92;2.75;;;18.00;55.20;;;;;;5072470;28;20659;-61
2023/05/05 04:38:38;;;;;;;2.53;2.42;;;18.00;55.30;;;;;;5072941;28;20185;-60
2023/05/05 04:41:07;;;;;;;3.20;3.00;;;18.10;55.30;;;;;;5071902;28;20218;-61
2023/05/05 04:43:33;;;;;;;2.92;2.72;;;18.00;55.30;;;;;;5072581;28;20625;-60
2023/05/05 04:45:58;;;;;;;3.33;3.08;;;18.00;55.30;;;;;;5072690;28;20224;-60
2023/05/05 04:48:24;;;;;;;3.25;3.05;;;18.10;55.30;;;;;;5071773;28;20174;-60
2023/05/05 04:50:50;;;;;;;3.55;3.25;;;18.00;55.30;;;;;;5072202;28;20243;-60
2023/05/05 04:53:15;;;;;;;2.70;2.50;;;18.00;55.30;;;;;;5072447;28;20174;-60
2023/05/05 04:55:41;;;;;;;2.97;2.78;;;18.10;55.30;;;;;;5071917;28;20518;-60
2023/05/05 04:58:06;;;;;;;3.00;2.80;;;18.10;55.30;;;;;;5072505;28;20178;-60
2023/05/05 05:00:32;;;;;;;3.47;3.17;;;18.10;55.30;;;;;;5072580;28;20257;-61
2023/05/05 05:02:57;;;;;;;2.70;2.50;;;18.00;55.20;;;;;;5071727;28;20178;-61
2023/05/05 05:05:23;;;;;;;2.70;2.50;;;18.10;55.30;;;;;;5071903;28;20214;-60
2023/05/05 05:07:49;;;;;;;3.10;2.90;;;18.10;55.30;;;;;;5072375;28;20262;-60
2023/05/05 05:10:15;;;;;;;2.85;2.65;;;18.10;55.30;;;;;;5071246;28;20534;-60
2023/05/05 05:12:40;;;;;;;3.60;3.30;;;18.00;55.30;;;;;;5072467;28;20166;-60
2023/05/05 05:15:06;;;;;;;2.90;2.70;;;18.00;55.30;;;;;;5072421;28;20587;-60
2023/05/05 05:17:32;;;;;;;3.40;3.20;;;18.00;55.30;;;;;;5071715;28;20162;-60
2023/05/05 05:20:00;;;;;;;3.28;3.08;;;18.10;55.40;;;;;;5071968;28;20683;-60
2023/05/05 05:22:25;;;;;;;2.70;2.58;;;18.10;55.40;;;;;;5071290;28;20171;-60
2023/05/05 05:24:51;;;;;;;3.30;3.08;;;18.00;55.30;;;;;;5072217;28;20178;-60
2023/05/05 05:27:16;;;;;;;3.45;3.10;;;18.10;55.40;;;;;;5071943;28;20253;-60
2023/05/05 05:29:42;;;;;;;3.25;2.92;;;18.10;55.30;;;;;;5071671;28;20508;-60
2023/05/05 05:32:08;;;;;;;3.30;3.05;;;18.10;55.30;;;;;;5072178;28;20174;-61
2023/05/05 05:34:33;;;;;;;2.95;2.75;;;18.10;55.30;;;;;;5072048;28;20178;-61
2023/05/05 05:36:59;;;;;;;3.13;2.92;;;18.10;55.20;;;;;;5071436;28;20246;-61
2023/05/05 05:39:24;;;;;;;2.90;2.70;;;18.10;55.20;;;;;;5071821;28;20186;-60
2023/05/05 05:41:50;;;;;;;2.90;2.70;;;18.10;55.30;;;;;;5071982;28;20175;-60
2023/05/05 05:44:15;;;;;;;3.00;2.80;;;18.10;55.30;;;;;;5071305;28;20575;-61
2023/05/05 05:46:41;;;;;;;2.75;2.55;;;18.10;55.30;;;;;;5072158;28;20225;-60
2023/05/05 05:49:06;;;;;;;2.95;2.75;;;18.10;55.30;;;;;;5071631;28;20179;-60
2023/05/05 05:51:32;;;;;;;2.80;2.60;;;18.20;55.50;;;;;;5071245;28;20262;-60
2023/05/05 05:53:57;;;;;;;3.25;2.75;;;18.10;55.30;;;;;;5072254;28;20195;-60
2023/05/05 05:56:23;;;;;;;3.63;3.33;;;18.10;55.30;;;;;;5072118;28;20174;-60
2023/05/05 05:58:48;;;;;;;3.17;2.97;;;18.10;55.30;;;;;;5071710;28;20178;-61
2023/05/05 06:01:14;;;;;;;2.90;2.70;;;18.20;55.30;;;;;;5071931;28;20214;-60
2023/05/05 06:03:40;;;;;;;3.03;2.83;;;18.10;55.20;;;;;;5074217;28;20193;-61
2023/05/05 06:06:06;;;;;;;2.83;2.63;;;18.20;55.20;;;;;;5074885;28;20684;-60
2023/05/05 06:08:32;;;;;;;2.97;2.78;;;18.20;55.20;;;;;;5075788;28;20257;-60
2023/05/05 06:10:59;;;;;;;2.75;2.55;;;18.20;55.10;;;;;;5075559;28;20212;-60
2023/05/05 06:13:24;;;;;;;2.90;2.70;;;18.20;55.10;;;;;;5074600;28;20174;-61
2023/05/05 06:15:50;;;;;;;3.20;3.00;;;18.20;55.10;;;;;;5075982;28;20181;-60
2023/05/05 06:18:15;;;;;;;3.30;3.00;;;18.20;55.10;;;;;;5075349;28;20170;-60
2023/05/05 06:20:42;;;;;;;2.90;2.70;;;18.20;55.10;;;;;;5075010;28;20269;-60
2023/05/05 06:23:07;;;;;;;3.30;2.95;;;18.20;55.30;;;;;;5075217;28;20185;-59
2023/05/05 06:25:33;;;;;;;3.20;3.00;;;18.30;55.40;;;;;;5075836;28;20202;-62
2023/05/05 06:27:58;;;;;;;3.25;3.05;;;18.30;55.50;;;;;;5074759;28;20229;-64
2023/05/05 06:30:25;;;;;;;3.65;3.35;;;18.30;55.60;;;;;;5075528;28;20182;-64
2023/05/05 06:32:50;;;;;;;4.18;3.13;;;18.40;55.50;;;;;;5075022;28;20551;-65
2023/05/05 06:35:16;;;;;;;4.15;2.97;;;18.30;55.40;;;;;;5075264;28;20167;-66
2023/05/05 06:37:42;;;;;;;3.42;3.13;;;18.40;55.50;;;;;;5075632;28;20197;-61
2023/05/05 06:40:09;;;;;;;3.25;2.97;;;18.40;55.50;;;;;;5074657;28;20178;-61
2023/05/05 06:42:35;;;;;;;4.20;3.05;;;18.40;55.40;;;;;;5075580;28;20174;-62
2023/05/05 06:45:01;;;;;;;2.92;2.72;;;18.50;55.60;;;;;;5075491;28;20182;-62
2023/05/05 06:47:26;;;;;;;4.53;3.05;;;18.50;55.60;;;;;;5074122;28;20608;-62
2023/05/05 06:49:52;;;;;;;4.20;2.60;;;18.50;55.60;;;;;;5075312;28;20269;-62
2023/05/05 06:52:18;;;;;;;3.30;3.10;;;18.60;55.70;;;;;;5074734;28;20178;-61
2023/05/05 06:54:43;;;;;;;3.50;2.88;;;18.60;55.70;;;;;;5074608;28;20177;-61
2023/05/05 06:57:09;;;;;;;3.38;3.08;;;18.60;55.70;;;;;;5075082;28;20220;-62
2023/05/05 06:59:35;;;;;;;3.53;3.20;;;18.70;55.80;;;;;;5075403;28;20170;-62
2023/05/05 07:02:00;;;;;;;7.47;3.30;;;18.70;55.70;;;;;;5074374;28;20609;-62
2023/05/05 07:04:26;;;;;;;3.17;2.88;;;18.70;55.80;;;;;;5074487;28;20174;-64
2023/05/05 07:06:53;;;;;;;3.97;3.00;;;18.70;55.90;;;;;;5074904;28;20301;-62
2023/05/05 07:09:19;;;;;;;2.95;2.40;;;18.70;55.80;;;;;;5073948;28;20657;-62
2023/05/05 07:11:45;;;;;;;3.80;3.03;;;18.80;55.90;;;;;;5074849;28;20178;-63
2023/05/05 07:14:11;;;;;;;4.22;2.75;;;18.80;55.90;;;;;;5074288;28;20261;-63
2023/05/05 07:16:37;;;;;;;3.83;2.55;;;18.80;55.90;;;;;;5078651;28;20185;-63
2023/05/05 07:19:05;;;;;;;2.80;2.60;;;18.80;55.90;;;;;;5091352;28;20184;-62
2023/05/05 07:21:32;;;;;;;2.70;2.50;;;18.80;55.90;;;;;;5075551;28;20344;-63
2023/05/05 07:23:57;;;;;;;3.67;2.55;;;18.70;55.90;;;;;;5077965;28;20640;-63
2023/05/05 07:26:23;;;;;;;2.72;2.53;;;18.70;55.90;;;;;;5094200;28;20287;-63
2023/05/05 07:28:50;;;;;;;4.47;2.50;;;18.80;56.00;;;;;;5094782;28;20268;-63
2023/05/05 07:31:18;;;;;;;3.55;2.40;;;18.80;55.90;;;;;;5093897;28;20178;-65
2023/05/05 07:33:44;;;;;;;2.80;2.40;;;18.80;55.90;;;;;;5079364;28;20174;-65
2023/05/05 07:36:09;;;;;;;3.00;2.10;;;18.80;55.90;;;;;;5073360;28;20198;-64
2023/05/05 07:38:35;;;;;;;4.25;2.78;;;18.80;55.90;;;;;;5073415;28;20202;-63
2023/05/05 07:41:01;;;;;;;2.65;2.33;;;18.80;55.90;;;;;;5074525;28;20267;-64
2023/05/05 07:43:26;;;;;;;3.38;2.80;;;18.80;55.90;;;;;;5073474;28;20178;-64
2023/05/05 07:45:52;;;;;;;3.63;2.20;;;18.80;55.80;;;;;;5074184;28;20206;-63
2023/05/05 07:48:17;;;;;;;3.47;2.47;;;18.80;55.80;;;;;;5073859;28;20181;-63
2023/05/05 07:50:43;;;;;;;2.90;2.35;;;18.90;55.90;;;;;;5087061;28;20174;-62
2023/05/05 07:53:08;;;;;;;2.97;2.70;;;18.90;55.80;;;;;;5094300;28;20174;-62
2023/05/05 07:55:34;;;;;;;4.00;2.35;;;18.90;55.80;;;;;;5094457;28;20557;-63
2023/05/05 07:57:59;;;;;;;3.50;2.38;;;19.00;55.80;;;;;;5079071;28;20519;-65
2023/05/05 08:00:25;;;;;;;2.30;2.10;;;19.00;55.80;;;;;;5073623;28;20655;-61
2023/05/05 08:02:50;;;;;;;4.82;2.30;;;19.00;55.80;;;;;;5073943;28;20182;-61
2023/05/05 08:05:16;;;;;;;3.33;2.55;;;19.00;55.80;;;;;;5072745;28;20202;-61
2023/05/05 08:07:42;;;;;;;2.15;1.95;;;19.00;55.90;;;;;;5074024;28;20647;-61
2023/05/05 08:10:10;;;;;;;3.42;2.25;;;19.00;55.90;;;;;;5073582;28;20194;-60
2023/05/05 08:12:36;;;;;;;3.63;2.60;;;19.10;55.90;;;;;;5073232;28;20202;-61
2023/05/05 08:15:02;;;;;;;2.58;2.38;;;19.10;55.90;;;;;;5073636;28;20211;-62
2023/05/05 08:17:28;;;;;;;2.65;2.30;;;19.10;56.00;;;;;;5073253;28;20253;-62
2023/05/05 08:19:53;;;;;;;2.03;1.92;;;19.20;56.00;;;;;;5072830;28;20615;-62
2023/05/05 08:22:20;;;;;;;4.28;2.40;;;19.20;56.00;;;;;;5073066;28;20708;-62
2023/05/05 08:24:46;;;;;;;2.92;2.20;;;19.20;56.00;;;;;;5073779;28;20277;-62
2023/05/05 08:27:12;;;;;;;11.10;3.05;;;19.20;56.00;;;;;;5071310;28;20324;-61
2023/05/05 08:29:38;;;;;;;3.15;2.22;;;19.30;56.00;;;;;;5073412;28;20667;-62
2023/05/05 08:32:04;;;;;;;2.50;2.30;;;19.30;56.00;;;;;;5073455;28;20179;-60
2023/05/05 08:34:29;;;;;;;5.40;2.55;;;19.30;55.90;;;;;;5072371;28;20664;-63
2023/05/05 08:36:55;;;;;;;1.92;1.83;;;19.30;56.00;;;;;;5073406;28;20529;-62
2023/05/05 08:39:21;;;;;;;5.30;2.20;;;19.40;56.00;;;;;;5072377;28;20194;-62
2023/05/05 08:41:46;;;;;;;3.22;2.03;;;19.40;56.00;;;;;;5073107;28;20182;-62
2023/05/05 08:44:12;;;;;;;3.53;2.47;;;19.40;55.90;;;;;;5073068;28;20171;-62
2023/05/05 08:46:37;;;;;;;3.20;2.00;;;19.50;56.00;;;;;;5072390;28;20207;-62
2023/05/05 08:49:03;;;;;;;6.07;2.20;;;19.50;56.00;;;;;;5072988;28;20202;-62
2023/05/05 08:51:31;;;;;;;5.80;2.50;;;19.50;55.90;;;;;;5072954;28;20178;-60
2023/05/05 08:54:01;;;;;;;2.97;2.50;;;19.50;55.90;;;;;;5071169;28;20175;-60
2023/05/05 08:56:30;;;;;;;2.28;1.98;;;19.60;55.90;;;;;;5071610;28;20178;-60
2023/05/05 08:58:56;;;;;;;3.28;2.40;;;19.60;55.80;;;;;;5071294;28;20589;-60
2023/05/05 09:01:21;;;;;;;3.10;2.50;;;19.70;55.80;;;;;;5070598;28;20641;-61
2023/05/05 09:03:47;;;;;;;4.60;2.50;;;19.60;55.80;;;;;;5072497;28;20221;-60
2023/05/05 09:06:13;;;;;;;3.60;2.35;;;19.60;55.80;;;;;;5072542;28;20206;-60
2023/05/05 09:08:40;;;;;;;5.25;2.28;;;19.60;55.80;;;;;;5071053;28;20194;-60
2023/05/05 09:11:05;;;;;;;2.60;2.22;;;19.70;55.90;;;;;;5072470;28;20183;-60
2023/05/05 09:13:31;;;;;;;3.20;2.10;;;19.70;55.80;;;;;;5072821;28;20173;-60
2023/05/05 09:15:57;;;;;;;3.13;1.88;;;19.70;55.70;;;;;;5071976;28;20178;-60
2023/05/05 09:18:23;;;;;;;4.15;2.30;;;19.70;55.80;;;;;;5072182;28;20181;-61
2023/05/05 09:20:48;;;;;;;2.33;1.92;;;19.60;55.90;;;;;;5071528;28;20178;-60
2023/05/05 09:23:18;;;;;;;2.30;2.10;;;19.60;56.00;;;;;;5071673;28;20170;-60
2023/05/05 09:25:45;;;;;;;2.53;2.20;;;19.60;56.00;;;;;;5072463;28;20214;-60
2023/05/05 09:28:15;;;;;;;2.88;1.90;;;19.60;56.10;;;;;;5070999;28;20634;-60
2023/05/05 09:30:44;;;;;;;2.30;2.10;;;19.50;56.10;;;;;;5071845;28;20190;-61
2023/05/05 09:33:10;;;;;;;3.67;2.00;;;19.50;56.10;;;;;;5073016;28;20276;-61
2023/05/05 09:35:52;;;;;;;2.45;2.25;;;19.50;56.20;;;;;;5071666;28;20675;-61
2023/05/05 09:38:18;;;;;;;4.10;2.17;;;19.50;56.20;;;;;;5075314;28;20179;-60
2023/05/05 09:40:48;;;;;;;3.58;1.90;;;19.50;56.10;;;;;;5076499;28;20641;-61
2023/05/05 09:43:14;;;;;;;2.97;2.10;;;19.50;56.10;;;;;;5075337;28;20184;-60
2023/05/05 09:45:40;;;;;;;2.10;1.88;;;19.50;56.10;;;;;;5076604;28;20237;-60
2023/05/05 09:48:05;;;;;;;3.50;2.03;;;19.50;56.00;;;;;;5076077;28;20209;-60
2023/05/05 09:50:43;;;;;;;2.83;2.03;;;19.60;56.00;;;;;;5075623;28;20170;-60
2023/05/05 09:53:09;;;;;;;2.38;1.92;;;19.60;56.00;;;;;;5076196;28;20367;-60
2023/05/05 09:55:35;;;;;;;2.47;2.22;;;19.60;56.00;;;;;;5076365;28;20627;-60
2023/05/05 09:58:18;;;;;;;1.98;1.70;;;19.60;55.90;;;;;;5075431;28;20186;-60
2023/05/05 10:00:45;;;;;;;4.65;2.33;;;19.60;55.90;;;;;;5076367;28;20201;-61
2023/05/05 10:03:10;;;;;;;1.90;1.70;;;19.60;56.00;;;;;;5075616;28;20683;-61
2023/05/05 10:05:47;;;;;;;2.20;1.98;;;19.60;56.00;;;;;;5075096;28;20199;-61
2023/05/05 10:08:13;;;;;;;3.10;1.80;;;19.60;56.00;;;;;;5075774;28;20265;-61
2023/05/05 10:11:05;;;;;;;1.90;1.70;;;19.60;56.00;;;;;;5076107;28;20209;-60
2023/05/05 10:13:31;;;;;;;1.77;1.48;;;19.60;56.00;;;;;;5076206;28;20205;-60
2023/05/05 10:15:56;;;;;;;2.13;1.83;;;19.60;56.00;;;;;;5074756;28;20213;-60
2023/05/05 10:18:23;;;;;;;1.67;1.50;;;19.60;56.00;;;;;;5074922;28;20170;-60
2023/05/05 10:20:55;;;;;;;2.13;1.95;;;19.60;56.00;;;;;;5075768;28;20251;-60
2023/05/05 10:23:21;;;;;;;2.15;1.95;;;19.50;56.10;;;;;;5075483;28;20633;-60
2023/05/05 10:25:54;;;;;;;2.22;1.88;;;19.50;56.10;;;;;;5075052;28;20209;-60
2023/05/05 10:28:28;;;;;;;2.65;2.05;;;19.50;56.10;;;;;;5075519;28;20198;-61
2023/05/05 10:30:53;;;;;;;1.98;1.85;;;19.50;56.00;;;;;;5075590;28;20185;-61
2023/05/05 10:33:21;;;;;;;1.73;1.63;;;19.50;56.10;;;;;;5073398;28;20265;-62
2023/05/05 10:35:48;;;;;;;2.17;1.95;;;19.50;56.10;;;;;;5075781;28;20175;-61
2023/05/05 10:38:14;;;;;;;1.60;1.50;;;19.50;56.10;;;;;;5075320;28;20182;-61
2023/05/05 10:40:44;;;;;;;2.03;1.48;;;19.50;56.10;;;;;;5074829;28;20182;-59
2023/05/05 10:43:09;;;;;;;1.83;1.67;;;19.50;56.20;;;;;;5075155;28;20178;-60
2023/05/05 10:45:36;;;;;;;2.95;1.63;;;19.40;56.10;;;;;;5075403;28;20206;-59
2023/05/05 10:48:01;;;;;;;1.90;1.70;;;19.50;56.20;;;;;;5074479;28;20640;-59
2023/05/05 10:50:33;;;;;;;1.98;1.33;;;19.40;56.20;;;;;;5073265;28;20182;-59
2023/05/05 10:53:21;;;;;;;1.63;1.52;;;19.50;56.10;;;;;;5073651;28;20179;-59
2023/05/05 10:55:52;;;;;;;2.90;2.00;;;19.50;56.10;;;;;;5075198;28;20249;-59
2023/05/05 10:58:33;;;;;;;1.77;1.67;;;19.50;56.10;;;;;;5074546;28;20547;-59
2023/05/05 11:00:59;;;;;;;2.00;1.80;;;19.50;56.10;;;;;;5074548;28;20186;-59
2023/05/05 11:03:25;;;;;;;1.80;1.70;;;19.50;56.10;;;;;;5074828;28;20174;-60
2023/05/05 11:06:02;;;;;;;2.10;1.88;;;19.50;56.10;;;;;;5074860;28;20339;-60
2023/05/05 11:08:28;;;;;;;1.50;1.40;;;19.50;56.10;;;;;;5073692;28;20162;-59
2023/05/05 11:10:54;;;;;;;1.60;1.50;;;19.50;56.10;;;;;;5074621;28;20189;-59
2023/05/05 11:13:20;;;;;;;1.67;1.50;;;19.50;56.10;;;;;;5074609;28;20622;-59
2023/05/05 11:15:46;;;;;;;1.77;1.67;;;19.50;56.10;;;;;;5073936;28;20706;-59
2023/05/05 11:18:35;;;;;;;1.70;1.60;;;19.50;56.10;;;;;;5074361;28;20650;-59
2023/05/05 11:21:00;;;;;;;2.05;1.85;;;19.50;56.10;;;;;;5074222;28;20187;-60
2023/05/05 11:23:26;;;;;;;2.42;1.58;;;19.50;56.20;;;;;;5074057;28;20191;-59
2023/05/05 11:25:52;;;;;;;1.65;1.55;;;19.50;56.10;;;;;;5074576;28;20251;-59
2023/05/05 11:28:20;;;;;;;2.03;1.60;;;19.50;56.10;;;;;;5073394;28;20230;-60
2023/05/05 11:30:57;;;;;;;1.67;1.55;;;19.50;56.10;;;;;;5074645;28;20182;-60
2023/05/05 11:33:34;;;;;;;1.30;1.27;;;19.50;56.20;;;;;;5074219;28;20174;-60
2023/05/05 11:36:01;;;;;;;1.65;1.25;;;19.50;56.10;;;;;;5073873;28;20178;-60
2023/05/05 11:38:54;;;;;;;2.38;1.67;;;19.50;56.20;;;;;;5074198;28;20650;-60
2023/05/05 11:41:31;;;;;;;2.72;2.20;;;19.50;56.20;;;;;;5074000;28;20221;-60
2023/05/05 11:44:15;;;;;;;1.90;1.70;;;19.40;56.20;;;;;;5073543;28;20196;-60
2023/05/05 11:46:50;;;;;;;2.13;1.45;;;19.40;56.20;;;;;;5074292;28;20304;-60
2023/05/05 11:49:39;;;;;;;2.10;1.90;;;19.30;56.30;;;;;;5073236;28;20170;-59
2023/05/05 11:52:05;;;;;;;1.55;1.45;;;19.30;56.40;;;;;;5070862;28;20186;-60
2023/05/05 11:54:31;;;;;;;2.55;1.55;;;19.30;56.50;;;;;;5074032;28;20386;-59
2023/05/05 11:57:07;;;;;;;1.50;1.40;;;19.20;56.50;;;;;;5073472;28;20181;-59
2023/05/05 11:59:51;;;;;;;1.60;1.50;;;19.20;56.70;;;;;;5074150;28;20197;-60
2023/05/05 12:02:19;;;;;;;1.75;1.65;;;19.20;56.70;;;;;;5073067;28;20248;-60
2023/05/05 12:04:45;;;;;;;1.20;1.20;;;19.20;56.70;;;;;;5073281;28;20178;-60
2023/05/05 12:07:17;;;;;;;1.90;1.30;;;19.10;56.70;;;;;;5073388;28;20210;-60
2023/05/05 12:09:44;;;;;;;1.48;1.30;;;19.10;57.40;;;;;;5073782;28;20624;-60
2023/05/05 12:12:10;;;;;;;2.55;1.38;;;19.10;56.80;;;;;;5072999;28;20178;-59
2023/05/05 12:14:43;;;;;;;1.75;1.35;;;19.00;56.80;;;;;;5073718;28;20176;-60
2023/05/05 12:17:08;;;;;;;1.40;1.30;;;19.00;57.40;;;;;;5072241;28;20190;-59
2023/05/05 12:19:34;;;;;;;1.67;1.42;;;19.00;56.80;;;;;;5072967;28;20179;-60
2023/05/05 12:22:06;;;;;;;1.58;1.40;;;19.00;56.80;;;;;;5131687;27;21134;-60
2023/05/05 12:24:32;;;;;;;1.00;1.00;;;19.00;56.80;;;;;;5130753;28;20184;-60
2023/05/05 12:27:07;;;;;;;1.15;1.10;;;19.00;56.80;;;;;;5131394;27;20176;-61
2023/05/05 12:29:32;;;;;;;1.38;1.17;;;18.90;56.90;;;;;;5131273;28;20579;-61
2023/05/05 12:31:59;;;;;;;1.85;1.20;;;19.00;56.90;;;;;;5130398;28;20264;-61
2023/05/05 12:34:25;;;;;;;2.53;1.00;;;19.00;56.90;;;;;;5129877;28;20212;-61
2023/05/05 12:36:50;;;;;;;1.35;1.20;;;18.90;56.90;;;;;;5131354;28;20179;-61
2023/05/05 12:39:16;;;;;;;1.80;1.52;;;18.90;56.90;;;;;;5130046;28;20169;-61
2023/05/05 12:41:41;;;;;;;1.30;1.20;;;18.90;56.90;;;;;;5131184;28;20216;-61
2023/05/05 12:44:07;;;;;;;1.23;1.15;;;18.90;57.00;;;;;;5129634;28;20161;-61
2023/05/05 12:46:45;;;;;;;1.27;1.17;;;18.90;56.90;;;;;;5130111;28;20628;-62
2023/05/05 12:49:11;;;;;;;2.00;1.40;;;18.90;56.90;;;;;;5130802;27;20168;-61
2023/05/05 12:51:37;;;;;;;1.40;1.30;;;18.90;57.10;;;;;;5130972;28;20301;-60